createdAt,value
2018-06-09T00:02:27.000Z,22.87
2018-06-09T00:04:57.549Z,22.88
2018-06-09T00:07:27.846Z,22.62
2018-06-09T00:09:58.205Z,22.68
2018-06-09T00:12:28.569Z,22.59
2018-06-09T00:14:59.319Z,22.54
2018-06-09T00:17:29.852Z,22.53
2018-06-09T00:20:00.207Z,22.70
2018-06-09T00:22:30.536Z,22.59
2018-06-09T00:25:00.932Z,22.28
2018-06-09T00:27:31.409Z,22.38
2018-06-09T00:30:01.742Z,22.50
2018-06-09T00:32:32.093Z,22.58
2018-06-09T00:35:02.499Z,22.68
2018-06-09T00:37:33.903Z,22.66
2018-06-09T00:40:04.237Z,22.66
2018-06-09T00:42:35.473Z,22.51
2018-06-09T00:45:05.894Z,22.53
2018-06-09T00:47:36.295Z,22.49
2018-06-09T00:50:06.372Z,22.53
2018-06-09T00:52:36.594Z,22.48
2018-06-09T00:55:07.892Z,22.38
2018-06-09T00:57:38.326Z,22.31
2018-06-09T01:00:08.759Z,22.22
2018-06-09T01:02:39.151Z,22.15
2018-06-09T01:05:09.395Z,22.34
2018-06-09T01:07:39.703Z,22.17
2018-06-09T01:10:10.076Z,22.20
2018-06-09T01:12:40.510Z,22.33
2018-06-09T01:15:10.910Z,22.36
2018-06-09T01:17:41.357Z,22.41
2018-06-09T01:20:12.188Z,22.28
2018-06-09T01:22:42.540Z,21.97
2018-06-09T01:25:12.894Z,21.85
2018-06-09T01:27:43.230Z,21.96
2018-06-09T01:30:13.522Z,21.83
2018-06-09T01:32:43.904Z,21.74
2018-06-09T01:35:14.311Z,21.72
2018-06-09T01:37:44.775Z,21.67
2018-06-09T01:40:15.145Z,21.73
2018-06-09T01:42:45.502Z,21.68
2018-06-09T01:45:15.818Z,21.62
2018-06-09T01:47:46.204Z,21.67
2018-06-09T01:50:16.267Z,21.71
2018-06-09T01:52:46.583Z,21.78
2018-06-09T01:55:16.895Z,21.90
2018-06-09T01:57:47.268Z,21.98
2018-06-09T02:00:17.644Z,21.89
2018-06-09T02:02:47.970Z,21.70
2018-06-09T02:05:18.304Z,21.74
2018-06-09T02:07:48.802Z,21.83
2018-06-09T02:10:19.312Z,21.96
2018-06-09T02:12:49.672Z,21.84
2018-06-09T02:15:19.953Z,21.82
2018-06-09T02:17:50.603Z,21.91
2018-06-09T02:20:21.003Z,21.98
2018-06-09T02:22:51.070Z,22.07
2018-06-09T02:25:21.432Z,22.05
2018-06-09T02:27:53.100Z,21.93
2018-06-09T02:30:23.630Z,21.93
2018-06-09T02:32:53.967Z,21.92
2018-06-09T02:35:24.388Z,21.99
2018-06-09T02:37:55.023Z,21.78
2018-06-09T02:40:25.444Z,21.76
2018-06-09T02:42:55.778Z,21.82
2018-06-09T02:45:26.152Z,21.74
2018-06-09T02:47:56.692Z,21.78
2018-06-09T02:50:27.058Z,21.73
2018-06-09T02:52:57.475Z,21.82
2018-06-09T02:55:27.808Z,21.78
2018-06-09T02:57:58.157Z,21.81
2018-06-09T03:00:28.487Z,21.80
2018-06-09T03:02:58.935Z,21.67
2018-06-09T03:05:29.274Z,21.42
2018-06-09T03:07:59.620Z,21.46
2018-06-09T03:10:29.925Z,21.61
2018-06-09T03:13:00.340Z,21.74
2018-06-09T03:15:30.370Z,21.92
2018-06-09T03:18:00.715Z,22.01
2018-06-09T03:20:34.426Z,21.92
2018-06-09T03:23:04.759Z,21.91
2018-06-09T03:25:35.073Z,21.89
2018-06-09T03:28:05.516Z,21.85
2018-06-09T03:30:35.832Z,21.74
2018-06-09T03:33:06.557Z,21.63
2018-06-09T03:35:36.896Z,21.74
2018-06-09T03:38:07.273Z,21.61
2018-06-09T03:40:37.638Z,21.48
2018-06-09T03:43:08.080Z,21.60
2018-06-09T03:45:38.431Z,21.65
2018-06-09T03:48:08.819Z,21.74
2018-06-09T03:50:39.346Z,21.91
2018-06-09T03:53:09.712Z,21.94
2018-06-09T03:55:40.004Z,21.80
2018-06-09T03:58:10.572Z,21.84
2018-06-09T04:00:40.913Z,21.73
2018-06-09T04:03:11.339Z,21.80
2018-06-09T04:05:41.847Z,21.61
2018-06-09T04:08:12.282Z,21.59
2018-06-09T04:10:42.593Z,21.65
2018-06-09T04:13:13.019Z,21.69
2018-06-09T04:15:43.430Z,21.80
2018-06-09T04:18:13.771Z,21.81
2018-06-09T04:20:44.121Z,21.87
2018-06-09T04:23:14.566Z,21.73
2018-06-09T04:25:44.976Z,21.61
2018-06-09T04:28:15.303Z,21.62
2018-06-09T04:30:45.656Z,21.74
2018-06-09T04:33:15.663Z,21.72
2018-06-09T04:35:45.912Z,21.73
2018-06-09T04:38:16.229Z,21.71
2018-06-09T04:40:46.549Z,21.67
2018-06-09T04:43:16.642Z,21.63
2018-06-09T04:45:46.934Z,21.69
2018-06-09T04:48:17.319Z,21.76
2018-06-09T04:50:47.717Z,21.80
2018-06-09T04:53:18.227Z,21.88
2018-06-09T04:55:48.592Z,22.00
2018-06-09T04:58:19.039Z,21.88
2018-06-09T05:00:49.542Z,21.95
2018-06-09T05:03:20.284Z,21.94
2018-06-09T05:05:50.624Z,22.09
2018-06-09T05:08:21.097Z,22.10
2018-06-09T05:10:51.457Z,22.13
2018-06-09T05:13:21.840Z,22.19
2018-06-09T05:15:52.306Z,22.19
2018-06-09T05:18:22.855Z,22.22
2018-06-09T05:20:53.274Z,22.34
2018-06-09T05:23:23.679Z,22.40
2018-06-09T05:25:54.081Z,22.33
2018-06-09T05:28:24.497Z,22.48
2018-06-09T05:31:01.896Z,22.47
2018-06-09T05:33:32.272Z,22.59
2018-06-09T05:36:02.601Z,22.59
2018-06-09T05:38:33.140Z,22.83
2018-06-09T05:41:03.555Z,22.94
2018-06-09T05:43:34.610Z,22.98
2018-06-09T05:46:04.994Z,22.90
2018-06-09T05:48:35.422Z,22.88
2018-06-09T05:51:05.773Z,23.06
2018-06-09T05:53:36.140Z,23.07
2018-06-09T05:56:06.234Z,23.28
2018-06-09T05:58:36.485Z,23.16
2018-06-09T06:01:06.924Z,23.31
2018-06-09T06:03:37.604Z,23.39
2018-06-09T06:06:07.973Z,23.50
2018-06-09T06:08:38.339Z,23.48
2018-06-09T06:11:08.726Z,23.33
2018-06-09T06:13:39.076Z,23.34
2018-06-09T06:16:09.473Z,23.39
2018-06-09T06:18:39.894Z,23.55
2018-06-09T06:21:10.343Z,23.56
2018-06-09T06:23:40.758Z,23.60
2018-06-09T06:26:11.200Z,23.67
2018-06-09T06:28:41.609Z,23.92
2018-06-09T06:31:11.993Z,24.10
2018-06-09T06:33:42.452Z,24.04
2018-06-09T06:36:12.805Z,24.08
2018-06-09T06:38:43.330Z,24.14
2018-06-09T06:41:13.787Z,24.08
2018-06-09T06:43:44.157Z,23.85
2018-06-09T06:46:14.779Z,23.99
2018-06-09T06:48:45.205Z,23.98
2018-06-09T06:51:15.556Z,23.87
2018-06-09T06:53:46.120Z,23.80
2018-06-09T06:56:16.890Z,23.86
2018-06-09T06:58:47.247Z,23.82
2018-06-09T07:01:17.637Z,24.05
2018-06-09T07:03:48.051Z,24.05
2018-06-09T07:06:18.497Z,24.03
2018-06-09T07:08:48.899Z,24.04
2018-06-09T07:11:19.248Z,24.00
2018-06-09T07:13:49.769Z,23.95
2018-06-09T07:16:20.195Z,23.98
2018-06-09T07:18:50.683Z,24.20
2018-06-09T07:21:21.192Z,24.17
2018-06-09T07:23:51.611Z,24.27
2018-06-09T07:26:22.775Z,24.37
2018-06-09T07:28:53.217Z,24.34
2018-06-09T07:31:23.600Z,24.43
2018-06-09T07:33:53.921Z,24.45
2018-06-09T07:36:24.397Z,24.46
2018-06-09T07:38:54.827Z,24.33
2018-06-09T07:41:25.041Z,24.34
2018-06-09T07:43:55.399Z,24.47
2018-06-09T07:46:25.845Z,24.61
2018-06-09T07:48:56.284Z,24.65
2018-06-09T07:51:26.888Z,24.78
2018-06-09T07:53:57.847Z,24.62
2018-06-09T07:56:28.208Z,24.57
2018-06-09T07:58:58.613Z,24.61
2018-06-09T08:01:28.704Z,24.57
2018-06-09T08:03:58.952Z,24.65
2018-06-09T08:06:29.340Z,24.64
2018-06-09T08:08:59.650Z,24.74
2018-06-09T08:11:30.074Z,24.75
2018-06-09T08:14:00.482Z,24.77
2018-06-09T08:16:30.857Z,24.97
2018-06-09T08:19:01.218Z,25.24
2018-06-09T08:21:31.825Z,25.33
2018-06-09T08:24:02.212Z,25.26
2018-06-09T08:26:32.603Z,25.22
2018-06-09T08:29:03.003Z,25.35
2018-06-09T08:31:33.386Z,25.23
2018-06-09T08:34:03.810Z,25.42
2018-06-09T08:36:35.222Z,25.35
2018-06-09T08:39:07.327Z,25.47
2018-06-09T08:41:37.745Z,25.39
2018-06-09T08:44:08.144Z,25.29
2018-06-09T08:46:38.540Z,25.24
2018-06-09T08:49:08.951Z,25.35
2018-06-09T08:51:39.607Z,25.56
2018-06-09T08:54:09.779Z,25.87
2018-06-09T08:56:40.104Z,25.84
2018-06-09T08:59:10.497Z,26.01
2018-06-09T09:01:41.027Z,25.92
2018-06-09T09:04:11.415Z,25.81
2018-06-09T09:06:41.788Z,25.75
2018-06-09T09:09:12.168Z,25.54
2018-06-09T09:11:42.292Z,25.64
2018-06-09T09:14:12.601Z,25.79
2018-06-09T09:16:43.136Z,25.97
2018-06-09T09:19:13.596Z,26.15
2018-06-09T09:21:44.117Z,26.33
2018-06-09T09:24:14.575Z,26.43
2018-06-09T09:26:45.065Z,26.47
2018-06-09T09:29:15.063Z,26.52
2018-06-09T09:31:45.610Z,26.67
2018-06-09T09:34:15.917Z,26.70
2018-06-09T09:36:45.996Z,26.69
2018-06-09T09:39:16.379Z,26.59
2018-06-09T09:41:46.736Z,26.73
2018-06-09T09:44:17.247Z,26.69
2018-06-09T09:46:47.757Z,26.88
2018-06-09T09:49:18.108Z,26.98
2018-06-09T09:51:48.559Z,26.93
2018-06-09T09:54:19.072Z,27.00
2018-06-09T09:56:49.448Z,26.97
2018-06-09T09:59:19.881Z,27.19
2018-06-09T10:01:50.411Z,27.26
2018-06-09T10:04:20.638Z,27.14
2018-06-09T10:06:50.956Z,27.29
2018-06-09T10:09:21.049Z,27.37
2018-06-09T10:11:51.338Z,27.46
2018-06-09T10:14:21.784Z,27.56
2018-06-09T10:16:52.245Z,27.68
2018-06-09T10:19:22.623Z,27.65
2018-06-09T10:21:53.008Z,27.66
2018-06-09T10:24:23.546Z,27.61
2018-06-09T10:26:53.945Z,27.59
2018-06-09T10:29:24.366Z,27.76
2018-06-09T10:31:54.752Z,27.83
2018-06-09T10:34:25.172Z,27.84
2018-06-09T10:36:55.774Z,27.77
2018-06-09T10:39:26.153Z,27.86
2018-06-09T10:41:56.531Z,27.90
2018-06-09T10:44:26.890Z,28.14
2018-06-09T10:46:57.321Z,28.19
2018-06-09T10:49:27.725Z,28.33
2018-06-09T10:51:58.237Z,28.26
2018-06-09T10:54:28.620Z,28.28
2018-06-09T10:56:59.088Z,28.41
2018-06-09T10:59:29.597Z,28.40
2018-06-09T11:02:00.045Z,28.41
2018-06-09T11:04:30.461Z,28.45
2018-06-09T11:07:00.880Z,28.49
2018-06-09T11:09:31.201Z,28.41
2018-06-09T11:12:01.754Z,28.49
2018-06-09T11:14:32.120Z,28.57
2018-06-09T11:17:02.468Z,28.53
2018-06-09T11:19:32.828Z,28.54
2018-06-09T11:22:02.918Z,28.64
2018-06-09T11:24:33.409Z,28.85
2018-06-09T11:27:03.891Z,28.99
2018-06-09T11:29:35.551Z,29.09
2018-06-09T11:32:05.859Z,29.20
2018-06-09T11:34:36.240Z,29.21
2018-06-09T11:37:06.661Z,29.03
2018-06-09T11:39:37.028Z,28.98
2018-06-09T11:42:07.528Z,29.08
2018-06-09T11:44:37.878Z,29.25
2018-06-09T11:47:08.367Z,29.22
2018-06-09T11:49:38.475Z,29.41
2018-06-09T11:52:08.764Z,29.49
2018-06-09T11:54:39.151Z,29.58
2018-06-09T11:57:09.614Z,29.52
2018-06-09T11:59:40.065Z,29.69
2018-06-09T12:02:10.656Z,29.80
2018-06-09T12:04:41.036Z,29.84
2018-06-09T12:07:11.381Z,29.94
2018-06-09T12:09:41.755Z,30.00
2018-06-09T12:12:12.172Z,30.19
2018-06-09T12:14:42.555Z,30.10
2018-06-09T12:17:12.949Z,30.19
2018-06-09T12:19:43.112Z,30.41
2018-06-09T12:22:13.537Z,30.53
2018-06-09T12:24:44.014Z,30.64
2018-06-09T12:27:14.452Z,30.82
2018-06-09T12:29:44.878Z,30.56
2018-06-09T12:32:15.489Z,30.70
2018-06-09T12:34:46.066Z,30.69
2018-06-09T12:37:16.517Z,30.80
2018-06-09T12:39:46.982Z,30.76
2018-06-09T12:42:17.387Z,30.69
2018-06-09T12:44:47.805Z,30.55
2018-06-09T12:47:18.163Z,30.72
2018-06-09T12:49:48.666Z,30.88
2018-06-09T12:52:19.085Z,30.81
2018-06-09T12:54:49.246Z,30.96
2018-06-09T12:57:19.679Z,31.06
2018-06-09T12:59:50.133Z,31.17
2018-06-09T13:02:20.803Z,31.25
2018-06-09T13:04:51.232Z,30.92
2018-06-09T13:07:21.717Z,30.65
2018-06-09T13:09:52.113Z,30.58
2018-06-09T13:12:22.638Z,30.40
2018-06-09T13:14:53.101Z,30.16
2018-06-09T13:17:23.552Z,30.17
2018-06-09T13:19:53.942Z,30.20
2018-06-09T13:22:24.341Z,30.29
2018-06-09T13:24:54.825Z,30.17
2018-06-09T13:27:24.930Z,30.07
2018-06-09T13:29:55.299Z,29.96
2018-06-09T13:32:25.675Z,30.00
2018-06-09T13:34:56.289Z,29.90
2018-06-09T13:37:26.729Z,29.94
2018-06-09T13:39:57.156Z,29.96
2018-06-09T13:42:27.521Z,30.12
2018-06-09T13:44:57.951Z,30.20
2018-06-09T13:47:28.287Z,30.16
2018-06-09T13:49:58.776Z,30.27
2018-06-09T13:52:29.226Z,30.24
2018-06-09T13:54:59.620Z,30.37
2018-06-09T13:57:30.187Z,30.41
2018-06-09T14:00:00.673Z,30.39
2018-06-09T14:02:31.210Z,30.33
2018-06-09T14:05:01.572Z,30.33
2018-06-09T14:07:32.101Z,30.38
2018-06-09T14:10:02.496Z,30.44
2018-06-09T14:12:32.919Z,30.52
2018-06-09T14:15:03.368Z,30.59
2018-06-09T14:17:33.754Z,30.63
2018-06-09T14:20:04.187Z,30.79
2018-06-09T14:22:38.779Z,30.91
2018-06-09T14:25:09.245Z,31.11
2018-06-09T14:27:39.658Z,31.23
2018-06-09T14:30:10.160Z,31.23
2018-06-09T14:32:40.698Z,30.98
2018-06-09T14:35:11.080Z,30.75
2018-06-09T14:37:41.502Z,30.52
2018-06-09T14:40:11.979Z,30.34
2018-06-09T14:42:43.104Z,30.17
2018-06-09T14:45:13.558Z,30.01
2018-06-09T14:47:44.013Z,29.79
2018-06-09T14:50:14.499Z,29.38
2018-06-09T14:52:45.072Z,29.15
2018-06-09T14:55:15.661Z,28.64
2018-06-09T14:57:46.188Z,28.48
2018-06-09T15:00:16.544Z,28.38
2018-06-09T15:02:46.982Z,28.12
2018-06-09T15:05:17.348Z,27.86
2018-06-09T15:07:47.576Z,27.79
2018-06-09T15:10:18.078Z,27.64
2018-06-09T15:12:48.644Z,27.53
2018-06-09T15:15:19.081Z,27.57
2018-06-09T15:17:49.582Z,27.55
2018-06-09T15:20:20.039Z,27.57
2018-06-09T15:22:50.495Z,27.54
2018-06-09T15:25:20.996Z,27.46
2018-06-09T15:27:51.356Z,27.46
2018-06-09T15:30:21.864Z,27.36
2018-06-09T15:32:52.289Z,27.44
2018-06-09T15:35:22.646Z,27.53
2018-06-09T15:37:53.000Z,27.55
2018-06-09T15:40:23.358Z,27.44
2018-06-09T15:42:53.702Z,27.34
2018-06-09T15:45:24.210Z,27.18
2018-06-09T15:47:54.604Z,27.14
2018-06-09T15:50:25.257Z,27.07
2018-06-09T15:52:55.741Z,27.05
2018-06-09T15:55:26.098Z,26.97
2018-06-09T15:57:56.745Z,27.09
2018-06-09T16:00:27.196Z,27.27
2018-06-09T16:02:57.512Z,27.29
2018-06-09T16:05:27.998Z,27.34
2018-06-09T16:07:58.628Z,27.39
2018-06-09T16:10:29.042Z,27.24
2018-06-09T16:12:59.369Z,27.19
2018-06-09T16:15:29.816Z,27.27
2018-06-09T16:18:00.159Z,27.23
2018-06-09T16:20:30.499Z,27.10
2018-06-09T16:23:00.992Z,27.09
2018-06-09T16:25:31.517Z,27.25
2018-06-09T16:28:01.871Z,27.32
2018-06-09T16:30:32.192Z,27.15
2018-06-09T16:33:02.648Z,27.08
2018-06-09T16:35:33.051Z,26.93
2018-06-09T16:38:03.546Z,26.81
2018-06-09T16:40:33.948Z,26.74
2018-06-09T16:43:04.361Z,26.65
2018-06-09T16:45:35.999Z,26.53
2018-06-09T16:48:06.495Z,26.46
2018-06-09T16:50:37.078Z,26.40
2018-06-09T16:53:07.500Z,26.36
2018-06-09T16:55:37.881Z,26.31
2018-06-09T16:58:08.384Z,26.26
2018-06-09T17:00:38.820Z,26.12
2018-06-09T17:03:09.229Z,26.04
2018-06-09T17:05:39.651Z,25.98
2018-06-09T17:08:10.080Z,25.87
2018-06-09T17:10:40.474Z,25.84
2018-06-09T17:13:10.810Z,25.92
2018-06-09T17:15:41.282Z,25.86
2018-06-09T17:18:11.704Z,25.82
2018-06-09T17:20:42.121Z,25.74
2018-06-09T17:23:12.527Z,25.82
2018-06-09T17:25:42.864Z,25.82
2018-06-09T17:28:13.231Z,25.84
2018-06-09T17:30:43.671Z,25.76
2018-06-09T17:33:14.028Z,25.70
2018-06-09T17:35:44.419Z,25.54
2018-06-09T17:38:14.813Z,25.42
2018-06-09T17:40:45.210Z,25.36
2018-06-09T17:43:15.554Z,25.18
2018-06-09T17:45:45.786Z,24.94
2018-06-09T17:48:16.430Z,24.85
2018-06-09T17:50:46.917Z,24.67
2018-06-09T17:53:17.457Z,24.52
2018-06-09T17:55:47.898Z,24.55
2018-06-09T17:58:18.274Z,24.50
2018-06-09T18:00:48.747Z,24.40
2018-06-09T18:03:19.156Z,24.31
2018-06-09T18:05:49.449Z,24.27
2018-06-09T18:08:19.950Z,24.03
2018-06-09T18:10:50.381Z,24.02
2018-06-09T18:13:20.840Z,23.93
2018-06-09T18:15:51.286Z,23.99
2018-06-09T18:18:21.718Z,23.93
2018-06-09T18:20:52.068Z,24.04
2018-06-09T18:23:22.487Z,23.90
2018-06-09T18:25:52.956Z,23.87
2018-06-09T18:28:23.409Z,23.81
2018-06-09T18:30:53.526Z,23.70
2018-06-09T18:33:23.944Z,23.58
2018-06-09T18:35:54.392Z,23.62
2018-06-09T18:38:24.741Z,23.72
2018-06-09T18:40:55.170Z,23.63
2018-06-09T18:43:25.656Z,23.63
2018-06-09T18:45:55.881Z,23.52
2018-06-09T18:48:26.216Z,23.49
2018-06-09T18:50:56.742Z,23.43
2018-06-09T18:53:27.133Z,23.40
2018-06-09T18:55:57.660Z,23.40
2018-06-09T18:58:28.060Z,23.39
2018-06-09T19:00:58.533Z,23.41
2018-06-09T19:03:29.167Z,23.62
2018-06-09T19:05:59.761Z,23.73
2018-06-09T19:08:30.221Z,23.77
2018-06-09T19:11:00.660Z,23.89
2018-06-09T19:13:31.166Z,23.87
2018-06-09T19:16:01.842Z,23.78
2018-06-09T19:18:32.351Z,23.78
2018-06-09T19:21:02.794Z,23.83
2018-06-09T19:23:33.335Z,23.93
2018-06-09T19:26:03.871Z,23.79
2018-06-09T19:28:34.388Z,23.77
2018-06-09T19:31:04.839Z,23.99
2018-06-09T19:33:36.448Z,24.09
2018-06-09T19:36:07.311Z,24.11
2018-06-09T19:38:37.739Z,23.98
2018-06-09T19:41:08.201Z,23.86
2018-06-09T19:43:38.593Z,23.86
2018-06-09T19:46:08.986Z,23.77
2018-06-09T19:48:39.491Z,23.70
2018-06-09T19:51:09.673Z,23.75
2018-06-09T19:53:40.144Z,23.81
2018-06-09T19:56:10.735Z,24.02
2018-06-09T19:58:41.236Z,24.06
2018-06-09T20:01:11.594Z,24.02
2018-06-09T20:03:41.816Z,23.83
2018-06-09T20:06:12.418Z,23.70
2018-06-09T20:08:42.972Z,23.62
2018-06-09T20:11:13.429Z,23.59
2018-06-09T20:13:43.841Z,23.71
2018-06-09T20:16:14.225Z,23.79
2018-06-09T20:18:44.691Z,23.66
2018-06-09T20:21:15.112Z,23.53
2018-06-09T20:23:45.518Z,23.61
2018-06-09T20:26:16.045Z,23.63
2018-06-09T20:28:46.546Z,23.72
2018-06-09T20:31:17.077Z,23.67
2018-06-09T20:33:47.500Z,23.70
2018-06-09T20:36:17.949Z,23.55
2018-06-09T20:38:48.088Z,23.43
2018-06-09T20:41:18.445Z,23.27
2018-06-09T20:43:49.053Z,23.25
2018-06-09T20:46:19.150Z,23.14
2018-06-09T20:48:49.484Z,23.22
2018-06-09T20:51:20.052Z,23.30
2018-06-09T20:53:50.592Z,23.32
2018-06-09T20:56:20.985Z,23.24
2018-06-09T20:58:51.522Z,23.14
2018-06-09T21:01:21.941Z,23.24
2018-06-09T21:03:52.347Z,23.05
2018-06-09T21:06:22.716Z,22.94
2018-06-09T21:08:53.208Z,22.91
2018-06-09T21:11:23.643Z,22.90
2018-06-09T21:13:54.007Z,22.85
2018-06-09T21:16:24.366Z,22.81
2018-06-09T21:19:00.105Z,22.76
2018-06-09T21:21:34.372Z,22.68
2018-06-09T21:24:10.054Z,22.69
2018-06-09T21:26:50.289Z,22.72
2018-06-09T21:29:29.837Z,22.61
2018-06-09T21:38:00.090Z,22.61
2018-06-09T21:40:40.855Z,22.58
2018-06-09T21:46:32.906Z,22.52
2018-06-09T21:49:08.818Z,22.44
2018-06-09T21:51:47.528Z,22.46
2018-06-09T21:55:07.187Z,22.54
2018-06-09T21:57:43.878Z,22.51
2018-06-09T22:00:28.509Z,22.44
2018-06-09T22:03:10.951Z,22.50
2018-06-09T22:08:37.562Z,22.29
2018-06-09T22:11:12.109Z,22.31
2018-06-09T22:13:49.072Z,22.29
2018-06-09T22:16:30.915Z,22.27
2018-06-09T22:19:55.044Z,22.29
2018-06-09T22:22:33.903Z,22.35
2018-06-09T22:25:48.425Z,22.39
2018-06-09T22:28:23.311Z,22.35
2018-06-09T22:31:12.379Z,22.30
2018-06-09T22:34:07.145Z,22.19
2018-06-09T22:36:45.569Z,22.20
2018-06-09T22:44:29.984Z,22.01
2018-06-09T22:47:00.859Z,21.99
2018-06-09T22:49:32.758Z,22.13
2018-06-09T22:52:03.622Z,22.36
2018-06-09T22:54:34.436Z,22.44
2018-06-09T22:57:05.247Z,22.56
2018-06-09T22:59:37.277Z,22.68
2018-06-09T23:02:09.072Z,22.79
2018-06-09T23:04:39.893Z,22.83
2018-06-09T23:07:11.734Z,22.76
2018-06-09T23:09:43.106Z,22.76
2018-06-09T23:12:13.942Z,22.63
2018-06-09T23:14:44.783Z,22.64
2018-06-09T23:17:15.591Z,22.65
2018-06-09T23:19:46.397Z,22.60
2018-06-09T23:22:17.359Z,22.65
2018-06-09T23:24:48.442Z,22.67
2018-06-09T23:27:19.335Z,22.60
2018-06-09T23:29:50.151Z,22.66
2018-06-09T23:32:20.972Z,22.58
2018-06-09T23:34:51.753Z,22.47
2018-06-09T23:37:22.506Z,22.44
2018-06-09T23:39:53.255Z,22.42
2018-06-09T23:42:24.406Z,22.44
2018-06-09T23:44:55.816Z,22.62
2018-06-09T23:47:26.794Z,22.60
2018-06-09T23:49:57.909Z,22.55
2018-06-09T23:52:29.041Z,22.62
2018-06-09T23:55:00.075Z,22.63
2018-06-09T23:57:32.811Z,22.67
